createdAt,value
2023-05-16T00:00:44.857Z,54.56
2023-05-16T00:03:11.606Z,52.13
2023-05-16T00:05:38.304Z,53.60
2023-05-16T00:08:05.116Z,54.98
2023-05-16T00:10:31.874Z,55.21
2023-05-16T00:12:58.521Z,54.41
2023-05-16T00:15:25.250Z,52.88
2023-05-16T00:17:52.021Z,54.95
2023-05-16T00:20:18.812Z,54.84
2023-05-16T00:22:45.461Z,56.77
2023-05-16T00:25:12.341Z,55.28
2023-05-16T00:27:38.940Z,56.37
2023-05-16T00:30:06.042Z,56.69
2023-05-16T00:32:32.669Z,54.90
2023-05-16T00:34:59.312Z,54.27
2023-05-16T00:37:25.976Z,55.63
2023-05-16T00:39:52.637Z,54.24
2023-05-16T00:42:19.790Z,55.28
2023-05-16T00:44:46.728Z,54.57
2023-05-16T00:47:13.344Z,55.40
2023-05-16T00:49:39.948Z,54.99
2023-05-16T00:52:06.636Z,54.73
2023-05-16T00:54:33.295Z,56.19
2023-05-16T00:56:59.965Z,53.84
2023-05-16T00:59:26.716Z,54.83
2023-05-16T01:01:53.481Z,54.91
2023-05-16T01:04:20.191Z,53.80
2023-05-16T01:06:46.863Z,55.70
2023-05-16T01:09:13.467Z,53.99
2023-05-16T01:11:56.746Z,54.30
2023-05-16T01:14:35.462Z,54.91
2023-05-16T01:17:16.922Z,53.63
2023-05-16T01:20:03.007Z,52.69
2023-05-16T01:22:36.437Z,52.68
2023-05-16T01:25:07.437Z,53.97
2023-05-16T01:27:35.015Z,53.96
2023-05-16T01:30:01.600Z,54.32
2023-05-16T01:32:28.295Z,52.35
2023-05-16T01:34:54.904Z,52.76
2023-05-16T01:37:31.685Z,55.53
2023-05-16T01:40:02.541Z,53.14
2023-05-16T01:42:29.348Z,53.38
2023-05-16T01:45:05.130Z,52.58
2023-05-16T01:47:31.895Z,54.00
2023-05-16T01:50:18.414Z,52.57
2023-05-16T01:52:54.177Z,54.14
2023-05-16T01:55:29.845Z,56.20
2023-05-16T01:57:56.751Z,54.12
2023-05-16T02:00:23.454Z,55.35
2023-05-16T02:02:50.109Z,52.70
2023-05-16T02:05:16.782Z,53.96
2023-05-16T02:07:43.458Z,54.47
2023-05-16T02:10:10.736Z,54.89
2023-05-16T02:12:37.397Z,53.83
2023-05-16T02:15:04.226Z,55.55
2023-05-16T02:17:30.850Z,54.97
2023-05-16T02:19:57.536Z,53.22
2023-05-16T02:22:24.204Z,54.60
2023-05-16T02:24:50.827Z,54.73
2023-05-16T02:27:17.413Z,54.34
2023-05-16T02:29:44.006Z,54.01
2023-05-16T02:32:10.629Z,53.52
2023-05-16T02:34:37.291Z,54.36
2023-05-16T02:37:03.946Z,52.05
2023-05-16T02:39:30.602Z,55.64
2023-05-16T02:41:57.272Z,55.32
2023-05-16T02:44:23.872Z,54.05
2023-05-16T02:46:50.625Z,53.98
2023-05-16T02:49:17.373Z,53.27
2023-05-16T02:51:44.008Z,55.44
2023-05-16T02:54:10.610Z,55.20
2023-05-16T02:56:37.259Z,54.06
2023-05-16T02:59:04.257Z,53.06
2023-05-16T03:01:31.039Z,54.23
2023-05-16T03:03:57.782Z,54.49
2023-05-16T03:06:24.472Z,55.61
2023-05-16T03:08:51.118Z,53.44
2023-05-16T03:11:18.381Z,55.50
2023-05-16T03:13:44.960Z,55.94
2023-05-16T03:16:11.660Z,55.23
2023-05-16T03:18:38.352Z,56.09
2023-05-16T03:21:05.132Z,54.26
2023-05-16T03:23:31.764Z,54.17
2023-05-16T03:25:58.431Z,54.27
2023-05-16T03:28:25.015Z,54.84
2023-05-16T03:30:51.631Z,54.92
2023-05-16T03:33:18.272Z,55.32
2023-05-16T03:35:44.936Z,55.44
2023-05-16T03:38:11.753Z,54.11
2023-05-16T03:40:38.435Z,54.58
2023-05-16T03:43:05.107Z,54.73
2023-05-16T03:45:31.837Z,53.88
2023-05-16T03:47:58.573Z,54.31
2023-05-16T03:50:25.249Z,54.90
2023-05-16T03:52:51.889Z,53.01
2023-05-16T03:55:18.480Z,51.22
2023-05-16T03:57:45.213Z,51.98
2023-05-16T04:00:12.195Z,52.68
2023-05-16T04:02:39.684Z,51.51
2023-05-16T04:05:09.860Z,50.86
2023-05-16T04:07:37.171Z,51.18
2023-05-16T04:10:04.471Z,50.80
2023-05-16T04:12:31.072Z,51.73
2023-05-16T04:14:58.008Z,51.99
2023-05-16T04:17:24.638Z,51.54
2023-05-16T04:19:51.327Z,50.93
2023-05-16T04:22:17.975Z,51.91
2023-05-16T04:24:44.592Z,52.12
2023-05-16T04:27:11.249Z,52.46
2023-05-16T04:29:37.897Z,51.41
2023-05-16T04:32:05.005Z,51.36
2023-05-16T04:34:31.805Z,51.32
2023-05-16T04:36:58.470Z,51.02
2023-05-16T04:39:26.170Z,51.16
2023-05-16T04:41:53.032Z,52.02
2023-05-16T04:44:19.668Z,51.46
2023-05-16T04:46:46.369Z,51.78
2023-05-16T04:49:13.082Z,50.80
2023-05-16T04:51:39.749Z,51.89
2023-05-16T04:54:06.358Z,51.58
2023-05-16T04:56:32.991Z,51.95
2023-05-16T04:58:59.623Z,51.32
2023-05-16T05:01:26.332Z,50.97
2023-05-16T05:03:52.978Z,50.81
2023-05-16T05:06:19.608Z,50.52
2023-05-16T05:08:46.236Z,50.00
2023-05-16T05:11:12.873Z,50.35
2023-05-16T05:13:39.485Z,51.62
2023-05-16T05:16:06.144Z,50.68
2023-05-16T05:18:32.858Z,50.11
2023-05-16T05:20:59.766Z,50.30
2023-05-16T05:23:26.379Z,50.82
2023-05-16T05:25:52.981Z,49.42
2023-05-16T05:28:19.646Z,50.01
2023-05-16T05:30:46.308Z,50.27
2023-05-16T05:33:14.606Z,51.48
2023-05-16T05:35:41.267Z,50.75
2023-05-16T05:38:07.962Z,50.20
2023-05-16T05:40:34.612Z,49.25
2023-05-16T05:43:01.264Z,48.94
2023-05-16T05:45:28.138Z,49.02
2023-05-16T05:47:55.105Z,49.53
2023-05-16T05:50:21.761Z,49.21
2023-05-16T05:52:48.372Z,49.55
2023-05-16T05:55:14.970Z,49.38
2023-05-16T05:57:41.557Z,48.75
2023-05-16T06:00:08.595Z,49.30
2023-05-16T06:02:35.311Z,48.56
2023-05-16T06:05:02.015Z,49.58
2023-05-16T06:07:28.624Z,50.83
2023-05-16T06:09:55.222Z,48.61
2023-05-16T06:12:21.860Z,47.64
2023-05-16T06:14:48.499Z,48.09
2023-05-16T06:17:15.282Z,47.76
2023-05-16T06:19:41.932Z,47.26
2023-05-16T06:22:08.561Z,48.18
2023-05-16T06:24:35.165Z,47.85
2023-05-16T06:27:01.778Z,48.91
2023-05-16T06:29:28.410Z,49.98
2023-05-16T06:31:55.147Z,48.11
2023-05-16T06:34:21.880Z,47.76
2023-05-16T06:36:48.508Z,46.73
2023-05-16T06:39:15.164Z,46.08
2023-05-16T06:41:41.812Z,46.68
2023-05-16T06:44:08.428Z,47.79
2023-05-16T06:46:35.083Z,45.39
2023-05-16T06:49:01.767Z,44.24
2023-05-16T06:51:28.392Z,44.57
2023-05-16T06:53:55.011Z,45.21
2023-05-16T06:56:21.633Z,43.95
2023-05-16T06:58:48.552Z,45.03
2023-05-16T07:01:15.705Z,45.61
2023-05-16T07:03:42.485Z,44.37
2023-05-16T07:06:09.206Z,44.73
2023-05-16T07:08:35.834Z,44.89
2023-05-16T07:11:02.508Z,44.89
2023-05-16T07:13:29.150Z,44.57
2023-05-16T07:15:55.985Z,44.84
2023-05-16T07:18:22.658Z,46.51
2023-05-16T07:20:49.341Z,44.80
2023-05-16T07:23:16.029Z,45.37
2023-05-16T07:25:42.720Z,45.82
2023-05-16T07:28:09.365Z,46.50
2023-05-16T07:30:36.042Z,47.46
2023-05-16T07:33:02.790Z,47.27
2023-05-16T07:35:29.734Z,47.91
2023-05-16T07:37:56.522Z,47.05
2023-05-16T07:40:23.216Z,46.90
2023-05-16T07:42:49.889Z,46.98
2023-05-16T07:45:16.664Z,46.26
2023-05-16T07:47:43.414Z,47.74
2023-05-16T07:50:10.806Z,47.48
2023-05-16T07:52:37.548Z,47.45
2023-05-16T07:55:04.514Z,48.09
2023-05-16T07:57:31.210Z,47.67
2023-05-16T07:59:57.870Z,48.56
2023-05-16T08:02:24.623Z,49.91
2023-05-16T08:04:51.332Z,51.07
2023-05-16T08:07:18.032Z,51.04
2023-05-16T08:09:44.736Z,50.58
2023-05-16T08:12:11.421Z,52.51
2023-05-16T08:14:38.082Z,52.90
2023-05-16T08:17:04.911Z,52.89
2023-05-16T08:19:31.861Z,52.44
2023-05-16T08:21:58.649Z,52.71
2023-05-16T08:24:25.390Z,53.41
2023-05-16T08:26:52.062Z,54.58
2023-05-16T08:29:18.686Z,54.01
2023-05-16T08:31:45.451Z,55.17
2023-05-16T08:34:12.138Z,55.33
2023-05-16T08:36:38.838Z,54.59
2023-05-16T08:39:05.480Z,54.53
2023-05-16T08:41:32.149Z,53.01
2023-05-16T08:43:58.817Z,53.56
2023-05-16T08:46:25.564Z,53.03
2023-05-16T08:48:53.151Z,52.53
2023-05-16T08:51:20.710Z,52.69
2023-05-16T08:53:57.276Z,52.85
2023-05-16T08:56:24.059Z,54.66
2023-05-16T08:58:50.740Z,55.50
2023-05-16T09:01:17.462Z,56.96
2023-05-16T09:03:44.220Z,58.47
2023-05-16T09:06:11.134Z,57.62
2023-05-16T09:08:37.808Z,55.94
2023-05-16T09:11:04.574Z,55.24
2023-05-16T09:13:31.272Z,57.38
2023-05-16T09:16:17.547Z,54.58
2023-05-16T09:18:58.529Z,54.57
2023-05-16T09:21:29.734Z,56.36
2023-05-16T09:23:56.370Z,52.27
2023-05-16T09:26:22.997Z,53.99
2023-05-16T09:28:53.257Z,53.90
2023-05-16T09:31:24.017Z,55.12
2023-05-16T09:33:50.695Z,54.64
2023-05-16T09:36:17.395Z,53.87
2023-05-16T09:38:44.211Z,54.74
2023-05-16T09:41:10.906Z,53.79
2023-05-16T09:43:41.906Z,54.56
2023-05-16T09:46:08.884Z,52.10
2023-05-16T09:48:35.668Z,51.96
2023-05-16T09:51:03.540Z,51.01
2023-05-16T09:53:31.260Z,52.13
2023-05-16T09:56:04.052Z,49.91
2023-05-16T09:58:31.613Z,50.87
2023-05-16T10:00:58.297Z,51.82
2023-05-16T10:03:25.789Z,51.92
2023-05-16T10:05:53.087Z,51.81
2023-05-16T10:08:21.318Z,51.45
2023-05-16T10:10:49.342Z,50.92
2023-05-16T10:13:16.044Z,51.65
2023-05-16T10:15:42.742Z,50.46
2023-05-16T10:18:09.459Z,49.80
2023-05-16T10:20:36.196Z,49.13
2023-05-16T10:23:02.972Z,48.82
2023-05-16T10:25:34.026Z,48.93
2023-05-16T10:28:00.748Z,48.16
2023-05-16T10:30:27.433Z,47.08
2023-05-16T10:32:54.215Z,45.63
2023-05-16T10:35:21.080Z,45.71
2023-05-16T10:37:48.385Z,46.09
2023-05-16T10:40:15.071Z,46.08
2023-05-16T10:42:44.779Z,44.74
2023-05-16T10:45:20.720Z,48.73
2023-05-16T10:47:58.558Z,46.10
2023-05-16T10:50:41.094Z,45.61
2023-05-16T10:53:34.565Z,45.97
2023-05-16T10:56:01.137Z,46.82
2023-05-16T10:58:33.868Z,46.68
2023-05-16T11:01:18.642Z,46.66
2023-05-16T11:03:57.241Z,46.27
2023-05-16T11:06:25.184Z,45.62
2023-05-16T11:09:04.158Z,46.32
2023-05-16T11:11:49.147Z,46.16
2023-05-16T11:14:42.682Z,46.67
2023-05-16T11:17:10.181Z,45.45
2023-05-16T11:19:44.618Z,46.99
2023-05-16T11:22:20.361Z,45.34
2023-05-16T11:24:50.906Z,46.05
2023-05-16T11:27:21.842Z,45.20
2023-05-16T11:29:48.500Z,46.52
2023-05-16T11:32:15.211Z,45.48
2023-05-16T11:34:41.891Z,46.10
2023-05-16T11:37:10.740Z,45.28
2023-05-16T11:39:37.416Z,44.69
2023-05-16T11:42:04.123Z,44.43
2023-05-16T11:44:30.799Z,44.93
2023-05-16T11:46:57.481Z,44.71
2023-05-16T11:49:24.175Z,45.67
2023-05-16T11:51:50.814Z,45.42
2023-05-16T11:54:17.446Z,45.74
2023-05-16T11:56:44.116Z,44.74
2023-05-16T11:59:10.856Z,44.93
2023-05-16T12:01:38.397Z,46.19
2023-05-16T12:04:11.672Z,44.11
2023-05-16T12:06:38.878Z,44.48
2023-05-16T12:09:06.017Z,44.37
2023-05-16T12:11:32.744Z,44.51
2023-05-16T12:13:59.412Z,44.41
2023-05-16T12:16:26.191Z,44.52
2023-05-16T12:18:52.926Z,43.73
2023-05-16T12:21:19.589Z,43.65
2023-05-16T12:23:46.277Z,42.80
2023-05-16T12:26:12.987Z,42.78
2023-05-16T12:28:39.692Z,41.57
2023-05-16T12:31:29.896Z,41.45
2023-05-16T12:33:58.311Z,41.24
2023-05-16T12:36:25.410Z,42.70
2023-05-16T12:38:53.146Z,42.00
2023-05-16T12:41:20.261Z,43.40
2023-05-16T12:43:47.187Z,44.42
2023-05-16T12:46:13.931Z,43.60
2023-05-16T12:48:40.789Z,43.07
2023-05-16T12:51:14.452Z,43.10
2023-05-16T12:53:51.419Z,43.36
2023-05-16T12:56:24.645Z,43.48
2023-05-16T12:58:51.290Z,43.67
2023-05-16T13:01:18.139Z,43.21
2023-05-16T13:03:45.662Z,43.58
2023-05-16T13:06:12.386Z,42.24
2023-05-16T13:08:39.354Z,42.03
2023-05-16T13:11:06.010Z,41.90
2023-05-16T13:13:36.370Z,43.16
2023-05-16T13:16:03.617Z,41.63
2023-05-16T13:18:30.342Z,41.84
2023-05-16T13:20:57.077Z,43.07
2023-05-16T13:23:23.710Z,42.88
2023-05-16T13:25:50.379Z,42.88
2023-05-16T13:28:17.110Z,42.56
2023-05-16T13:30:43.819Z,43.12
2023-05-16T13:33:10.542Z,43.03
2023-05-16T13:35:37.228Z,42.93
2023-05-16T13:38:04.131Z,43.73
2023-05-16T13:40:30.851Z,42.42
2023-05-16T13:42:57.617Z,43.25
2023-05-16T13:45:24.415Z,42.72
2023-05-16T13:47:51.257Z,44.92
2023-05-16T13:50:17.991Z,43.38
2023-05-16T13:52:44.731Z,43.79
2023-05-16T13:55:11.356Z,43.86
2023-05-16T13:57:37.975Z,44.76
2023-05-16T14:00:31.315Z,44.50
2023-05-16T14:02:51.833Z,43.71
2023-05-16T14:05:18.531Z,44.44
2023-05-16T14:07:46.771Z,44.84
2023-05-16T14:10:13.723Z,45.52
2023-05-16T14:12:40.389Z,45.36
2023-05-16T14:15:07.627Z,45.09
2023-05-16T14:17:34.301Z,44.75
2023-05-16T14:20:00.998Z,44.10
2023-05-16T14:22:27.676Z,44.36
2023-05-16T14:24:54.313Z,44.83
2023-05-16T14:27:20.967Z,44.95
2023-05-16T14:29:47.605Z,44.36
2023-05-16T14:32:14.434Z,46.96
2023-05-16T14:34:41.304Z,45.54
2023-05-16T14:37:08.126Z,44.54
2023-05-16T14:39:34.856Z,44.08
2023-05-16T14:42:01.491Z,44.49
2023-05-16T14:44:28.614Z,43.15
2023-05-16T14:46:55.259Z,43.49
2023-05-16T14:49:21.947Z,43.70
2023-05-16T14:51:48.777Z,45.11
2023-05-16T14:54:15.416Z,44.95
2023-05-16T14:56:42.089Z,44.83
2023-05-16T14:59:08.779Z,44.42
2023-05-16T15:01:35.533Z,45.28
2023-05-16T15:04:02.315Z,44.79
2023-05-16T15:06:29.610Z,45.05
2023-05-16T15:08:56.235Z,45.00
2023-05-16T15:11:22.899Z,44.63
2023-05-16T15:13:49.585Z,45.81
2023-05-16T15:16:16.328Z,44.39
2023-05-16T15:18:43.158Z,44.59
2023-05-16T15:21:10.002Z,45.09
2023-05-16T15:23:36.826Z,44.98
2023-05-16T15:26:03.976Z,45.50
2023-05-16T15:28:30.694Z,45.56
2023-05-16T15:30:57.356Z,45.42
2023-05-16T15:33:24.037Z,46.17
2023-05-16T15:35:50.687Z,45.41
2023-05-16T15:38:17.386Z,45.02
2023-05-16T15:40:44.026Z,46.63
2023-05-16T15:43:10.734Z,45.86
2023-05-16T15:45:39.845Z,45.97
2023-05-16T15:48:07.227Z,46.89
2023-05-16T15:50:36.770Z,46.18
2023-05-16T15:53:03.477Z,46.30
2023-05-16T15:55:30.395Z,46.71
2023-05-16T15:57:57.445Z,46.83
2023-05-16T16:00:24.681Z,48.70
2023-05-16T16:02:51.592Z,48.15
2023-05-16T16:05:18.427Z,47.59
2023-05-16T16:07:45.131Z,48.79
2023-05-16T16:10:11.920Z,49.27
2023-05-16T16:12:39.116Z,49.47
2023-05-16T16:15:06.154Z,50.07
2023-05-16T16:17:33.310Z,50.31
2023-05-16T16:20:01.183Z,49.76
2023-05-16T16:22:27.881Z,49.65
2023-05-16T16:24:54.548Z,50.06
2023-05-16T16:27:22.331Z,51.09
2023-05-16T16:29:49.047Z,50.41
2023-05-16T16:32:15.923Z,49.62
2023-05-16T16:34:42.656Z,49.89
2023-05-16T16:37:09.662Z,49.79
2023-05-16T16:39:36.381Z,49.72
2023-05-16T16:42:05.756Z,48.62
2023-05-16T16:44:32.426Z,49.29
2023-05-16T16:46:59.284Z,49.60
2023-05-16T16:49:26.114Z,50.34
2023-05-16T16:51:52.732Z,50.37
2023-05-16T16:54:19.352Z,49.91
2023-05-16T16:56:46.172Z,51.21
2023-05-16T16:59:12.992Z,50.49
2023-05-16T17:01:39.778Z,49.62
2023-05-16T17:04:06.559Z,49.34
2023-05-16T17:06:33.297Z,49.46
2023-05-16T17:08:59.961Z,50.02
2023-05-16T17:11:26.585Z,49.52
2023-05-16T17:13:53.275Z,50.48
2023-05-16T17:16:19.973Z,49.85
2023-05-16T17:18:46.691Z,49.82
2023-05-16T17:21:13.391Z,49.49
2023-05-16T17:23:42.466Z,49.31
2023-05-16T17:26:12.025Z,49.06
2023-05-16T17:28:38.679Z,50.19
2023-05-16T17:31:05.501Z,49.18
2023-05-16T17:33:32.158Z,48.72
2023-05-16T17:35:58.834Z,49.13
2023-05-16T17:38:25.461Z,49.68
2023-05-16T17:40:52.320Z,49.06
2023-05-16T17:43:19.002Z,48.93
2023-05-16T17:45:45.687Z,49.70
2023-05-16T17:48:12.482Z,49.24
2023-05-16T17:50:39.148Z,49.75
2023-05-16T17:53:05.811Z,49.54
2023-05-16T17:55:32.486Z,50.08
2023-05-16T17:57:59.149Z,50.08
2023-05-16T18:00:25.819Z,49.72
2023-05-16T18:02:53.001Z,48.89
2023-05-16T18:05:19.763Z,49.36
2023-05-16T18:07:46.457Z,50.06
2023-05-16T18:10:13.126Z,50.36
2023-05-16T18:12:40.370Z,50.34
2023-05-16T18:15:07.711Z,50.77
2023-05-16T18:17:34.482Z,50.57
2023-05-16T18:20:01.259Z,50.04
2023-05-16T18:22:28.096Z,50.30
2023-05-16T18:24:54.763Z,49.98
2023-05-16T18:27:23.218Z,49.76
2023-05-16T18:29:49.908Z,49.99
2023-05-16T18:32:16.545Z,49.50
2023-05-16T18:34:43.185Z,49.78
2023-05-16T18:37:09.931Z,50.39
2023-05-16T18:39:36.697Z,50.09
2023-05-16T18:42:03.519Z,50.40
2023-05-16T18:44:30.217Z,50.33
2023-05-16T18:46:56.962Z,50.87
2023-05-16T18:49:23.650Z,50.25
2023-05-16T18:51:50.292Z,50.56
2023-05-16T18:54:16.951Z,49.46
2023-05-16T18:56:43.591Z,50.90
2023-05-16T18:59:10.216Z,50.80
2023-05-16T19:01:36.925Z,50.75
2023-05-16T19:04:03.803Z,50.63
2023-05-16T19:06:30.607Z,51.33
2023-05-16T19:08:57.309Z,50.86
2023-05-16T19:11:23.972Z,50.29
2023-05-16T19:13:50.600Z,50.58
2023-05-16T19:16:17.239Z,50.82
2023-05-16T19:18:44.089Z,51.12
2023-05-16T19:21:10.880Z,51.92
2023-05-16T19:23:37.531Z,50.97
2023-05-16T19:26:04.161Z,50.83
2023-05-16T19:28:30.860Z,50.67
2023-05-16T19:30:58.047Z,50.05
2023-05-16T19:33:24.721Z,50.52
2023-05-16T19:35:51.450Z,50.21
2023-05-16T19:38:18.298Z,50.47
2023-05-16T19:40:45.368Z,51.60
2023-05-16T19:43:12.065Z,50.74
2023-05-16T19:45:38.791Z,51.08
2023-05-16T19:48:05.711Z,50.62
2023-05-16T19:50:34.822Z,51.66
2023-05-16T19:53:01.563Z,51.56
2023-05-16T19:55:32.008Z,52.03
2023-05-16T19:57:58.804Z,51.26
2023-05-16T20:00:25.666Z,50.35
2023-05-16T20:02:52.685Z,50.35
2023-05-16T20:05:19.765Z,49.62
2023-05-16T20:07:46.667Z,50.04
2023-05-16T20:10:13.371Z,49.84
2023-05-16T20:12:40.067Z,50.02
2023-05-16T20:15:07.212Z,49.56
2023-05-16T20:17:34.643Z,49.76
2023-05-16T20:20:01.384Z,48.82
2023-05-16T20:22:28.169Z,48.88
2023-05-16T20:24:54.814Z,48.91
2023-05-16T20:27:21.574Z,49.15
2023-05-16T20:29:48.296Z,47.98
2023-05-16T20:32:15.600Z,47.50
2023-05-16T20:34:42.314Z,47.22
2023-05-16T20:37:09.016Z,47.49
2023-05-16T20:39:35.704Z,49.46
2023-05-16T20:42:02.397Z,47.91
2023-05-16T20:44:29.237Z,47.21
2023-05-16T20:46:55.983Z,47.42
2023-05-16T20:49:22.707Z,47.93
2023-05-16T20:51:49.396Z,49.14
2023-05-16T20:54:16.035Z,48.01
2023-05-16T20:56:42.706Z,47.81
2023-05-16T20:59:09.421Z,47.83
2023-05-16T21:01:36.119Z,48.02
2023-05-16T21:04:02.899Z,48.61
2023-05-16T21:06:29.682Z,48.52
2023-05-16T21:08:56.534Z,48.40
2023-05-16T21:11:23.340Z,49.16
2023-05-16T21:13:49.986Z,48.93
2023-05-16T21:16:16.788Z,48.27
2023-05-16T21:18:43.563Z,48.55
2023-05-16T21:21:10.353Z,48.17
2023-05-16T21:23:37.075Z,48.18
2023-05-16T21:26:03.886Z,49.05
2023-05-16T21:28:32.777Z,48.38
2023-05-16T21:31:02.396Z,48.85
2023-05-16T21:33:29.089Z,49.96
2023-05-16T21:35:56.247Z,49.74
2023-05-16T21:38:24.269Z,50.34
2023-05-16T21:40:50.988Z,50.28
2023-05-16T21:43:17.674Z,50.42
2023-05-16T21:45:44.400Z,50.39
2023-05-16T21:48:11.220Z,50.33
2023-05-16T21:50:38.017Z,50.01
2023-05-16T21:53:04.660Z,50.07
2023-05-16T21:55:31.358Z,50.89
2023-05-16T21:57:58.040Z,50.80
2023-05-16T22:00:24.744Z,50.47
2023-05-16T22:02:51.449Z,50.17
2023-05-16T22:05:18.125Z,51.96
2023-05-16T22:07:45.060Z,51.91
2023-05-16T22:10:11.765Z,52.37
2023-05-16T22:12:38.555Z,52.56
2023-05-16T22:15:05.538Z,52.90
2023-05-16T22:17:32.258Z,52.39
2023-05-16T22:19:58.982Z,51.75
2023-05-16T22:22:25.653Z,51.88
2023-05-16T22:24:52.334Z,52.15
2023-05-16T22:27:19.019Z,51.53
2023-05-16T22:29:45.660Z,50.94
2023-05-16T22:32:12.452Z,50.53
2023-05-16T22:34:39.137Z,50.38
2023-05-16T22:37:06.733Z,50.28
2023-05-16T22:39:33.366Z,50.37
2023-05-16T22:42:00.042Z,50.72
2023-05-16T22:44:27.885Z,51.28
2023-05-16T22:46:54.615Z,50.91
2023-05-16T22:49:21.308Z,50.98
2023-05-16T22:51:48.001Z,50.02
2023-05-16T22:54:14.763Z,49.97
2023-05-16T22:56:41.452Z,49.97
2023-05-16T22:59:08.100Z,49.43
2023-05-16T23:01:34.949Z,49.37
2023-05-16T23:04:01.696Z,49.68
2023-05-16T23:06:28.439Z,49.43
2023-05-16T23:08:55.136Z,48.98
2023-05-16T23:11:21.819Z,49.39
2023-05-16T23:13:48.510Z,48.61
2023-05-16T23:16:15.202Z,48.67
2023-05-16T23:18:42.061Z,48.77
2023-05-16T23:21:08.825Z,49.10
2023-05-16T23:23:35.523Z,49.26
2023-05-16T23:26:02.162Z,49.05
2023-05-16T23:28:28.834Z,48.70
2023-05-16T23:30:55.561Z,48.36
2023-05-16T23:33:22.306Z,48.50
2023-05-16T23:35:49.121Z,48.84
2023-05-16T23:38:15.814Z,49.30
2023-05-16T23:40:42.487Z,49.41
2023-05-16T23:43:09.126Z,49.69
2023-05-16T23:45:35.818Z,49.20
2023-05-16T23:48:02.601Z,49.45
2023-05-16T23:50:29.383Z,49.82
2023-05-16T23:52:56.031Z,49.96
2023-05-16T23:55:22.789Z,51.50
2023-05-16T23:57:49.475Z,51.09
